Time;durP1;ratioP1;P1;durP2;ratioP2;P2;SDS_P1;SDS_P2;PMS_P1;PMS_P2;Temp;Humidity;BMP_temperature;BMP_pressure;BME280_temperature;BME280_humidity;BME280_pressure;Samples;Min_cycle;Max_cycle;Signal;HPM_P1;HPM_P2
2023/08/26 00:00:17;;;;;;;;;;;20.60;99.90;;;;;;7610850;19;20356;-74
2023/08/26 00:02:51;;;;;;;;;;;20.70;99.90;;;;;;7613021;19;20306;-75
2023/08/26 00:05:23;;;;;;;;;;;20.70;99.90;;;;;;7607460;19;19933;-75
2023/08/26 00:07:56;;;;;;;;;;;20.80;99.90;;;;;;7609522;19;19939;-74
2023/08/26 00:10:28;;;;;;;;;;;20.80;99.90;;;;;;7614154;19;19923;-75
2023/08/26 00:13:00;;;;;;;;;;;20.80;99.90;;;;;;7612187;19;19937;-74
2023/08/26 00:15:32;;;;;;;;;;;20.70;99.90;;;;;;7612359;19;19968;-75
2023/08/26 00:18:08;;;;;;;;;;;20.60;99.90;;;;;;7608627;19;19926;-75
2023/08/26 00:20:41;;;;;;;;;;;20.50;99.90;;;;;;7611741;19;19918;-74
2023/08/26 00:23:13;;;;;;;;;;;20.50;99.90;;;;;;7614130;19;20465;-75
2023/08/26 00:25:45;;;;;;;;;;;20.50;99.90;;;;;;7607715;19;19958;-75
2023/08/26 00:28:17;;;;;;;;;;;20.50;99.90;;;;;;7610075;19;19998;-74
2023/08/26 00:30:59;;;;;;;;;;;20.50;99.90;;;;;;7611638;19;20297;-75
2023/08/26 00:33:31;;;;;;;;;;;20.60;99.90;;;;;;7608978;19;20269;-76
2023/08/26 00:36:04;;;;;;;;;;;20.70;99.90;;;;;;7604532;19;20090;-75
2023/08/26 00:38:36;;;;;;;;;;;20.60;99.90;;;;;;7605544;19;20377;-75
2023/08/26 00:41:09;;;;;;;;;;;20.70;99.90;;;;;;7608200;19;20006;-74
2023/08/26 00:43:41;;;;;;;;;;;20.70;99.90;;;;;;7610313;19;19923;-75
2023/08/26 00:46:14;;;;;;;;;;;20.80;99.90;;;;;;7603886;19;19923;-74
2023/08/26 00:48:46;;;;;;;;;;;20.70;99.90;;;;;;7603608;19;19930;-74
2023/08/26 00:51:19;;;;;;;;;;;20.70;99.90;;;;;;7595598;19;19966;-75
2023/08/26 00:53:52;;;;;;;;;;;20.70;99.90;;;;;;7608886;19;19986;-74
2023/08/26 00:56:25;;;;;;;;;;;20.70;99.90;;;;;;7604476;19;20523;-74
2023/08/26 00:58:57;;;;;;;;;;;20.60;99.90;;;;;;7610962;19;19943;-75
2023/08/26 01:01:32;;;;;;;;;;;20.60;99.90;;;;;;7606636;19;19922;-75
2023/08/26 01:04:05;;;;;;;;;;;20.60;99.90;;;;;;7610509;19;19929;-75
2023/08/26 01:06:37;;;;;;;;;;;20.70;99.90;;;;;;7607751;19;19960;-75
2023/08/26 01:09:09;;;;;;;;;;;20.60;99.90;;;;;;7606752;19;20557;-75
2023/08/26 01:11:47;;;;;;;;;;;20.60;99.90;;;;;;7610983;19;19962;-74
2023/08/26 01:14:22;;;;;;;;;;;20.60;99.90;;;;;;7603668;19;20790;-75
2023/08/26 01:16:54;;;;;;;;;;;20.60;99.90;;;;;;7610694;19;19926;-74
2023/08/26 01:19:26;;;;;;;;;;;20.60;99.90;;;;;;7606265;19;19923;-76
2023/08/26 01:22:00;;;;;;;;;;;20.60;99.90;;;;;;7603785;19;19925;-74
2023/08/26 01:24:33;;;;;;;;;;;20.50;99.90;;;;;;7607118;19;19918;-75
2023/08/26 01:27:06;;;;;;;;;;;20.30;99.90;;;;;;7603470;19;19922;-75
2023/08/26 01:29:38;;;;;;;;;;;20.10;99.90;;;;;;7608131;19;20720;-75
2023/08/26 01:32:28;;;;;;;;;;;20.20;99.90;;;;;;7606808;19;19918;-74
2023/08/26 01:35:03;;;;;;;;;;;20.30;99.90;;;;;;7606199;19;19918;-75
2023/08/26 01:37:37;;;;;;;;;;;20.20;99.90;;;;;;7605786;19;19930;-75
2023/08/26 01:40:10;;;;;;;;;;;20.30;99.90;;;;;;7604124;19;19933;-76
2023/08/26 01:42:43;;;;;;;;;;;20.40;99.90;;;;;;7615788;19;19922;-76
2023/08/26 01:45:15;;;;;;;;;;;20.30;99.90;;;;;;7613735;19;19926;-76
2023/08/26 01:47:47;;;;;;;;;;;20.30;99.90;;;;;;7613664;19;19952;-74
2023/08/26 01:50:19;;;;;;;;;;;20.20;99.90;;;;;;7610650;19;19922;-75
2023/08/26 01:52:51;;;;;;;;;;;20.20;99.90;;;;;;7620656;19;19963;-74
2023/08/26 01:55:23;;;;;;;;;;;20.20;99.90;;;;;;7613927;19;19983;-75
2023/08/26 01:57:56;;;;;;;;;;;20.20;99.90;;;;;;7616772;19;20285;-76
2023/08/26 02:00:28;;;;;;;;;;;20.20;99.90;;;;;;7610104;19;19939;-76
2023/08/26 02:03:02;;;;;;;;;;;20.10;99.90;;;;;;7612474;19;19938;-74
2023/08/26 02:05:35;;;;;;;;;;;20.10;99.90;;;;;;7612059;19;19959;-75
2023/08/26 02:08:07;;;;;;;;;;;20.10;99.90;;;;;;7610844;19;19922;-75
2023/08/26 02:10:39;;;;;;;;;;;20.20;99.90;;;;;;7599726;19;19922;-75
2023/08/26 02:13:12;;;;;;;;;;;20.10;99.90;;;;;;7609198;19;19922;-74
2023/08/26 02:15:44;;;;;;;;;;;20.10;99.90;;;;;;7617386;19;19935;-75
2023/08/26 02:18:16;;;;;;;;;;;20.10;99.90;;;;;;7609187;19;20316;-75
2023/08/26 02:20:49;;;;;;;;;;;20.20;99.90;;;;;;7614162;19;19927;-75
2023/08/26 02:23:21;;;;;;;;;;;20.30;99.90;;;;;;7612233;19;20495;-74
2023/08/26 02:25:53;;;;;;;;;;;20.30;99.90;;;;;;7611814;19;19926;-74
2023/08/26 02:28:25;;;;;;;;;;;20.20;99.90;;;;;;7610391;19;20453;-74
2023/08/26 02:31:00;;;;;;;;;;;20.10;99.90;;;;;;7615102;19;19918;-74
2023/08/26 02:33:35;;;;;;;;;;;20.10;99.90;;;;;;7611140;19;20017;-73
2023/08/26 02:36:10;;;;;;;;;;;20.00;99.90;;;;;;7609723;19;19938;-76
2023/08/26 02:38:42;;;;;;;;;;;19.90;99.90;;;;;;7614785;19;19925;-74
2023/08/26 02:41:15;;;;;;;;;;;20.00;99.90;;;;;;7611029;19;19930;-73
2023/08/26 02:43:47;;;;;;;;;;;20.10;99.90;;;;;;7613961;19;19927;-74
2023/08/26 02:46:21;;;;;;;;;;;20.00;99.90;;;;;;7608686;19;19926;-74
2023/08/26 02:48:53;;;;;;;;;;;20.00;99.90;;;;;;7613262;19;20009;-75
2023/08/26 02:51:25;;;;;;;;;;;20.10;99.90;;;;;;7591925;19;20337;-74
2023/08/26 02:53:58;;;;;;;;;;;20.20;99.90;;;;;;7618593;19;20531;-75
2023/08/26 02:56:30;;;;;;;;;;;20.20;99.90;;;;;;7610151;19;19918;-74
2023/08/26 02:59:03;;;;;;;;;;;20.20;99.90;;;;;;7612754;19;19931;-75
2023/08/26 03:01:36;;;;;;;;;;;20.10;99.90;;;;;;7609401;19;19926;-74
2023/08/26 03:04:09;;;;;;;;;;;20.00;99.90;;;;;;7613662;19;19922;-75
2023/08/26 03:06:42;;;;;;;;;;;20.00;99.90;;;;;;7608769;19;20715;-75
2023/08/26 03:09:15;;;;;;;;;;;20.10;99.90;;;;;;7612690;19;20860;-75
2023/08/26 03:11:47;;;;;;;;;;;20.00;99.90;;;;;;7609814;19;19971;-75
2023/08/26 03:14:19;;;;;;;;;;;20.10;99.90;;;;;;7612900;19;19922;-73
2023/08/26 03:16:51;;;;;;;;;;;20.10;99.90;;;;;;7608093;19;20600;-74
2023/08/26 03:19:23;;;;;;;;;;;19.90;99.90;;;;;;7612022;19;19910;-74
2023/08/26 03:21:55;;;;;;;;;;;19.80;99.90;;;;;;7611188;19;19934;-75
2023/08/26 03:24:27;;;;;;;;;;;19.60;99.90;;;;;;7611042;19;19918;-74
2023/08/26 03:27:00;;;;;;;;;;;19.40;99.90;;;;;;7611865;19;19923;-76
2023/08/26 03:29:33;;;;;;;;;;;19.30;99.90;;;;;;7608632;19;19926;-76
2023/08/26 03:32:05;;;;;;;;;;;19.00;99.90;;;;;;7613296;19;19927;-75
2023/08/26 03:34:37;;;;;;;;;;;18.90;99.90;;;;;;7609959;19;19922;-79
2023/08/26 03:37:10;;;;;;;;;;;18.60;99.90;;;;;;7620084;19;19914;-79
2023/08/26 03:39:42;;;;;;;;;;;18.50;99.90;;;;;;7615328;19;19919;-79
2023/08/26 03:42:15;;;;;;;;;;;18.40;99.90;;;;;;7618732;19;19926;-79
2023/08/26 03:44:47;;;;;;;;;;;18.30;99.90;;;;;;7617100;19;19970;-79
2023/08/26 03:47:19;;;;;;;;;;;18.30;99.90;;;;;;7614193;19;19933;-78
2023/08/26 03:49:51;;;;;;;;;;;18.20;99.90;;;;;;7617618;19;19926;-79
2023/08/26 03:52:24;;;;;;;;;;;18.20;99.90;;;;;;7616565;19;19926;-80
2023/08/26 03:54:56;;;;;;;;;;;18.20;99.90;;;;;;7619362;19;21085;-79
2023/08/26 03:57:28;;;;;;;;;;;18.10;99.90;;;;;;7615116;19;20272;-80
2023/08/26 04:00:01;;;;;;;;;;;18.00;99.90;;;;;;7613957;19;19925;-78
2023/08/26 04:02:34;;;;;;;;;;;18.00;99.90;;;;;;7615520;19;19918;-79
2023/08/26 04:05:06;;;;;;;;;;;18.00;99.90;;;;;;7615482;19;19914;-79
2023/08/26 04:07:38;;;;;;;;;;;17.90;99.90;;;;;;7614658;19;20386;-80
2023/08/26 04:10:10;;;;;;;;;;;17.90;99.90;;;;;;7618427;19;19939;-78
2023/08/26 04:12:43;;;;;;;;;;;17.90;99.90;;;;;;7615603;19;21018;-79
2023/08/26 04:15:15;;;;;;;;;;;17.90;99.90;;;;;;7614855;19;19918;-80
2023/08/26 04:17:48;;;;;;;;;;;17.90;99.90;;;;;;7612857;19;19915;-78
2023/08/26 04:20:20;;;;;;;;;;;17.90;99.90;;;;;;7617102;19;19971;-79
2023/08/26 04:22:52;;;;;;;;;;;17.90;99.90;;;;;;7613332;19;19926;-80
2023/08/26 04:25:26;;;;;;;;;;;17.90;99.90;;;;;;7614491;19;20006;-79
2023/08/26 04:27:58;;;;;;;;;;;17.90;99.90;;;;;;7611935;19;19926;-80
2023/08/26 04:30:30;;;;;;;;;;;17.90;99.90;;;;;;7610411;19;19982;-78
2023/08/26 04:33:04;;;;;;;;;;;18.00;99.90;;;;;;7610770;19;19914;-80
2023/08/26 04:35:36;;;;;;;;;;;17.90;99.90;;;;;;7614850;19;19919;-79
2023/08/26 04:38:08;;;;;;;;;;;17.90;99.90;;;;;;7616500;19;19922;-79
2023/08/26 04:40:41;;;;;;;;;;;17.90;99.90;;;;;;7613078;19;19914;-79
2023/08/26 04:43:13;;;;;;;;;;;17.90;99.90;;;;;;7611412;19;20646;-79
2023/08/26 04:45:45;;;;;;;;;;;17.90;99.90;;;;;;7611043;19;19964;-79
2023/08/26 04:48:18;;;;;;;;;;;17.90;99.90;;;;;;7607414;19;20906;-79
2023/08/26 04:50:50;;;;;;;;;;;18.00;99.90;;;;;;7608824;19;19952;-77
2023/08/26 04:53:23;;;;;;;;;;;18.00;99.90;;;;;;7609897;19;19962;-78
2023/08/26 04:55:55;;;;;;;;;;;17.90;99.90;;;;;;7612498;19;20279;-78
2023/08/26 04:58:27;;;;;;;;;;;17.80;99.90;;;;;;7608685;19;19927;-79
2023/08/26 05:01:00;;;;;;;;;;;17.80;99.90;;;;;;7612752;19;19914;-79
2023/08/26 05:03:32;;;;;;;;;;;17.80;99.90;;;;;;7612450;19;20722;-78
2023/08/26 05:06:05;;;;;;;;;;;17.80;99.90;;;;;;7607176;19;20464;-79
2023/08/26 05:08:37;;;;;;;;;;;17.80;99.90;;;;;;7610725;19;20606;-77
2023/08/26 05:11:09;;;;;;;;;;;17.80;99.90;;;;;;7609010;19;20568;-78
2023/08/26 05:13:41;;;;;;;;;;;17.90;99.90;;;;;;7609157;19;19922;-79
2023/08/26 05:16:13;;;;;;;;;;;17.80;99.90;;;;;;7609709;19;19930;-78
2023/08/26 05:18:46;;;;;;;;;;;17.80;99.90;;;;;;7616414;19;19922;-77
2023/08/26 05:21:19;;;;;;;;;;;17.90;99.90;;;;;;7618397;19;19919;-77
2023/08/26 05:23:52;;;;;;;;;;;17.90;99.90;;;;;;7616889;19;20661;-78
2023/08/26 05:26:24;;;;;;;;;;;17.90;99.90;;;;;;7613373;19;19926;-78
2023/08/26 05:28:57;;;;;;;;;;;17.90;99.90;;;;;;7618658;19;19941;-78
2023/08/26 05:31:31;;;;;;;;;;;17.90;99.90;;;;;;7611989;19;19944;-77
2023/08/26 05:34:03;;;;;;;;;;;18.00;99.90;;;;;;7614331;19;19954;-77
2023/08/26 05:36:35;;;;;;;;;;;17.90;99.90;;;;;;7613227;19;19990;-77
2023/08/26 05:39:07;;;;;;;;;;;18.00;99.90;;;;;;7616800;19;19923;-76
2023/08/26 05:41:39;;;;;;;;;;;18.00;99.90;;;;;;7616272;19;19933;-78
2023/08/26 05:44:12;;;;;;;;;;;18.10;99.90;;;;;;7616692;19;19933;-76
2023/08/26 05:46:44;;;;;;;;;;;18.10;99.90;;;;;;7613915;19;19928;-77
2023/08/26 05:49:16;;;;;;;;;;;18.10;99.90;;;;;;7619894;19;19919;-76
2023/08/26 05:51:48;;;;;;;;;;;18.20;99.90;;;;;;7615946;19;19943;-77
2023/08/26 05:54:21;;;;;;;;;;;18.20;99.90;;;;;;7617500;19;19994;-76
2023/08/26 05:56:53;;;;;;;;;;;18.20;99.90;;;;;;7616371;19;19919;-77
2023/08/26 05:59:25;;;;;;;;;;;18.20;99.90;;;;;;7598883;19;19933;-76
2023/08/26 06:01:58;;;;;;;;;;;18.10;99.90;;;;;;7620730;19;20583;-77
2023/08/26 06:04:31;;;;;;;;;;;18.20;99.90;;;;;;7611212;19;19966;-76
2023/08/26 06:07:03;;;;;;;;;;;18.30;99.90;;;;;;7613177;19;19919;-76
2023/08/26 06:09:35;;;;;;;;;;;18.30;99.90;;;;;;7612555;19;19919;-76
2023/08/26 06:12:08;;;;;;;;;;;18.40;99.90;;;;;;7616601;19;19926;-76
2023/08/26 06:14:40;;;;;;;;;;;18.30;99.90;;;;;;7611447;19;19942;-75
2023/08/26 06:17:13;;;;;;;;;;;18.40;99.90;;;;;;7611110;19;19961;-76
2023/08/26 06:19:45;;;;;;;;;;;18.40;99.90;;;;;;7612233;19;19934;-76
2023/08/26 06:22:17;;;;;;;;;;;18.50;99.90;;;;;;7612735;19;19927;-76
2023/08/26 06:24:51;;;;;;;;;;;18.50;99.90;;;;;;7614279;19;19922;-75
2023/08/26 06:27:23;;;;;;;;;;;18.60;99.90;;;;;;7607024;19;19919;-76
2023/08/26 06:29:58;;;;;;;;;;;18.60;99.90;;;;;;7613387;19;19933;-75
2023/08/26 06:32:30;;;;;;;;;;;18.70;99.90;;;;;;7614292;19;19919;-75
2023/08/26 06:35:04;;;;;;;;;;;18.80;99.90;;;;;;7614955;19;20650;-75
2023/08/26 06:37:37;;;;;;;;;;;18.90;99.90;;;;;;7606361;19;19929;-76
2023/08/26 06:40:10;;;;;;;;;;;19.00;99.90;;;;;;7616052;19;19965;-74
2023/08/26 06:42:42;;;;;;;;;;;19.10;99.90;;;;;;7611759;19;19923;-75
2023/08/26 06:45:20;;;;;;;;;;;19.00;99.90;;;;;;7611034;19;19946;-74
2023/08/26 06:47:53;;;;;;;;;;;19.20;99.90;;;;;;7609501;19;19930;-75
2023/08/26 06:50:26;;;;;;;;;;;19.20;99.90;;;;;;7611247;19;19956;-75
2023/08/26 06:52:58;;;;;;;;;;;19.20;99.90;;;;;;7611724;19;19923;-75
2023/08/26 06:55:30;;;;;;;;;;;19.20;99.90;;;;;;7614871;19;19933;-74
2023/08/26 06:58:03;;;;;;;;;;;19.30;99.90;;;;;;7617990;19;19978;-74
2023/08/26 07:00:35;;;;;;;;;;;19.40;99.90;;;;;;7610671;19;19956;-75
2023/08/26 07:03:07;;;;;;;;;;;19.50;99.90;;;;;;7619262;19;19981;-74
2023/08/26 07:05:43;;;;;;;;;;;19.60;99.90;;;;;;7609428;19;19941;-75
2023/08/26 07:08:15;;;;;;;;;;;19.70;99.90;;;;;;7618769;19;20438;-73
2023/08/26 07:10:47;;;;;;;;;;;19.80;99.90;;;;;;7615116;19;19919;-75
2023/08/26 07:13:20;;;;;;;;;;;19.90;99.90;;;;;;7618599;19;19923;-73
2023/08/26 07:15:52;;;;;;;;;;;20.00;99.90;;;;;;7616034;19;21062;-75
2023/08/26 07:18:24;;;;;;;;;;;20.10;99.90;;;;;;7615060;19;19919;-74
2023/08/26 07:20:56;;;;;;;;;;;20.10;99.90;;;;;;7611316;19;19922;-74
2023/08/26 07:23:28;;;;;;;;;;;20.20;99.90;;;;;;7612895;19;20005;-74
2023/08/26 07:26:01;;;;;;;;;;;20.30;99.90;;;;;;7612933;19;19968;-75
2023/08/26 07:28:33;;;;;;;;;;;20.40;99.90;;;;;;7608140;19;20330;-73
2023/08/26 07:31:06;;;;;;;;;;;20.60;99.90;;;;;;7613043;19;19975;-74
2023/08/26 07:33:38;;;;;;;;;;;20.70;99.90;;;;;;7610784;19;20348;-74
2023/08/26 07:36:10;;;;;;;;;;;20.70;99.90;;;;;;7603864;19;19930;-73
2023/08/26 07:38:42;;;;;;;;;;;20.80;99.90;;;;;;7609157;19;19922;-73
2023/08/26 07:41:14;;;;;;;;;;;20.80;99.90;;;;;;7614068;19;19929;-74
2023/08/26 07:43:46;;;;;;;;;;;21.00;99.90;;;;;;7609912;19;19957;-74
2023/08/26 07:46:22;;;;;;;;;;;21.10;99.90;;;;;;7616529;19;19914;-75
2023/08/26 07:48:57;;;;;;;;;;;21.20;99.90;;;;;;7612733;19;19947;-75
2023/08/26 07:51:29;;;;;;;;;;;21.00;99.90;;;;;;7611659;19;19926;-74
2023/08/26 07:54:01;;;;;;;;;;;21.10;99.90;;;;;;7614734;19;21371;-72
2023/08/26 07:56:34;;;;;;;;;;;21.10;99.90;;;;;;7609214;19;20387;-73
2023/08/26 07:59:06;;;;;;;;;;;21.20;99.90;;;;;;7612300;19;19923;-74
2023/08/26 08:01:38;;;;;;;;;;;21.20;99.90;;;;;;7609331;19;19952;-73
2023/08/26 08:04:10;;;;;;;;;;;21.20;99.90;;;;;;7612668;19;19919;-73
2023/08/26 08:06:43;;;;;;;;;;;21.30;99.90;;;;;;7606796;19;19925;-75
2023/08/26 08:09:15;;;;;;;;;;;21.30;99.90;;;;;;7609342;19;19939;-73
2023/08/26 08:11:47;;;;;;;;;;;21.30;99.90;;;;;;7611241;19;19922;-76
2023/08/26 08:14:19;;;;;;;;;;;21.30;99.90;;;;;;7612452;19;19919;-73
2023/08/26 08:16:52;;;;;;;;;;;21.30;99.90;;;;;;7608515;19;19922;-74
2023/08/26 08:19:24;;;;;;;;;;;21.40;99.90;;;;;;7614369;19;19922;-73
2023/08/26 08:21:56;;;;;;;;;;;21.50;99.90;;;;;;7607545;19;19930;-74
2023/08/26 08:24:28;;;;;;;;;;;21.40;99.90;;;;;;7613912;19;19957;-74
2023/08/26 08:27:00;;;;;;;;;;;21.50;99.90;;;;;;7601053;19;19970;-73
2023/08/26 08:29:32;;;;;;;;;;;21.50;99.90;;;;;;7611439;19;20349;-73
2023/08/26 08:32:05;;;;;;;;;;;21.50;99.90;;;;;;7609067;19;19925;-73
2023/08/26 08:34:37;;;;;;;;;;;21.50;99.90;;;;;;7609864;19;19938;-74
2023/08/26 08:37:09;;;;;;;;;;;21.60;99.90;;;;;;7608290;19;19921;-74
2023/08/26 08:39:41;;;;;;;;;;;21.70;99.90;;;;;;7610289;19;19960;-75
2023/08/26 08:42:17;;;;;;;;;;;21.60;99.90;;;;;;7608607;19;19930;-75
2023/08/26 08:44:49;;;;;;;;;;;21.60;99.90;;;;;;7609772;19;19937;-75
2023/08/26 08:47:22;;;;;;;;;;;21.60;99.90;;;;;;7608729;19;19933;-73
2023/08/26 08:49:54;;;;;;;;;;;21.60;99.90;;;;;;7604046;19;19934;-75
2023/08/26 08:52:26;;;;;;;;;;;21.70;99.90;;;;;;7621676;19;19919;-75
2023/08/26 08:54:58;;;;;;;;;;;21.80;99.90;;;;;;7614566;19;21839;-73
2023/08/26 08:57:32;;;;;;;;;;;21.90;99.90;;;;;;7615897;19;19950;-74
2023/08/26 09:00:06;;;;;;;;;;;21.80;99.90;;;;;;7606483;19;19933;-74
2023/08/26 09:02:40;;;;;;;;;;;22.00;99.90;;;;;;7619626;19;19922;-75
2023/08/26 09:05:13;;;;;;;;;;;22.20;99.90;;;;;;7610541;19;19918;-74
2023/08/26 09:07:46;;;;;;;;;;;22.40;99.90;;;;;;7612616;19;19926;-73
2023/08/26 09:10:18;;;;;;;;;;;22.60;99.90;;;;;;7617818;19;19926;-74
2023/08/26 09:12:50;;;;;;;;;;;22.70;99.90;;;;;;7610749;19;19937;-75
2023/08/26 09:15:22;;;;;;;;;;;22.80;99.90;;;;;;7616119;19;19929;-73
2023/08/26 09:18:02;;;;;;;;;;;22.70;99.90;;;;;;7609151;19;19919;-75
2023/08/26 09:20:37;;;;;;;;;;;22.60;99.90;;;;;;7618032;19;19933;-74
2023/08/26 09:23:09;;;;;;;;;;;22.40;99.90;;;;;;7612978;19;20479;-74
2023/08/26 09:25:55;;;;;;;;;;;22.30;99.90;;;;;;7618001;19;20189;-73
2023/08/26 09:28:27;;;;;;;;;;;22.30;99.90;;;;;;7616973;19;19923;-75
2023/08/26 09:31:06;;;;;;;;;;;22.30;99.90;;;;;;7609289;19;20282;-73
2023/08/26 09:33:38;;;;;;;;;;;22.30;99.90;;;;;;7618064;19;19927;-74
2023/08/26 09:36:10;;;;;;;;;;;22.40;99.90;;;;;;7608530;19;20663;-75
2023/08/26 09:38:47;;;;;;;;;;;22.40;99.90;;;;;;7617319;19;19915;-75
2023/08/26 09:41:21;;;;;;;;;;;22.60;99.90;;;;;;7609271;19;19927;-73
2023/08/26 09:43:54;;;;;;;;;;;23.00;99.90;;;;;;7614093;19;19915;-73
2023/08/26 09:46:26;;;;;;;;;;;23.20;99.90;;;;;;7614038;19;20945;-74
2023/08/26 09:48:59;;;;;;;;;;;23.20;99.90;;;;;;7611589;19;19925;-75
2023/08/26 09:51:32;;;;;;;;;;;23.30;99.90;;;;;;7604016;19;19955;-75
2023/08/26 09:54:05;;;;;;;;;;;23.50;99.90;;;;;;7613455;19;19938;-75
2023/08/26 09:56:38;;;;;;;;;;;23.60;99.90;;;;;;7616582;19;19922;-75
2023/08/26 09:59:11;;;;;;;;;;;23.70;99.90;;;;;;7612010;19;20321;-75
2023/08/26 10:01:43;;;;;;;;;;;23.70;99.90;;;;;;7615101;19;19948;-74
2023/08/26 10:04:22;;;;;;;;;;;23.70;99.90;;;;;;7609899;19;20009;-75
2023/08/26 10:06:57;;;;;;;;;;;23.80;99.90;;;;;;7604787;19;20028;-75
2023/08/26 10:09:48;;;;;;;;;;;23.90;99.90;;;;;;7612960;19;20304;-74
2023/08/26 10:12:25;;;;;;;;;;;24.00;99.90;;;;;;7615889;19;19923;-74
2023/08/26 10:15:00;;;;;;;;;;;24.10;99.90;;;;;;7612035;19;19950;-74
2023/08/26 10:17:33;;;;;;;;;;;24.10;99.90;;;;;;7612850;19;19962;-73
2023/08/26 10:20:06;;;;;;;;;;;24.20;99.90;;;;;;7606672;19;19960;-75
2023/08/26 10:22:38;;;;;;;;;;;24.20;99.90;;;;;;7619184;19;19975;-74
2023/08/26 10:25:11;;;;;;;;;;;24.20;99.90;;;;;;7612473;19;19917;-75
2023/08/26 10:27:44;;;;;;;;;;;24.30;99.90;;;;;;7615779;19;19927;-75
2023/08/26 10:30:17;;;;;;;;;;;24.20;99.90;;;;;;7608289;19;19914;-75
2023/08/26 10:32:57;;;;;;;;;;;24.20;99.90;;;;;;7619030;19;19918;-74
2023/08/26 10:35:30;;;;;;;;;;;24.30;99.90;;;;;;7612861;19;19982;-76
2023/08/26 10:38:13;;;;;;;;;;;24.30;99.90;;;;;;7612667;19;19921;-75
2023/08/26 10:40:45;;;;;;;;;;;24.40;99.90;;;;;;7618822;19;20529;-75
2023/08/26 10:43:17;;;;;;;;;;;24.50;99.90;;;;;;7611699;19;19926;-75
2023/08/26 10:45:50;;;;;;;;;;;24.60;99.90;;;;;;7614269;19;19935;-75
2023/08/26 10:48:23;;;;;;;;;;;24.60;99.90;;;;;;7615049;19;19933;-73
2023/08/26 10:50:57;;;;;;;;;;;24.70;99.90;;;;;;7613639;19;19918;-73
2023/08/26 10:53:42;;;;;;;;;;;24.80;99.90;;;;;;7618965;19;19927;-74
2023/08/26 10:56:15;;;;;;;;;;;24.80;99.90;;;;;;7616764;19;19915;-74
2023/08/26 10:58:48;;;;;;;;;;;24.70;99.90;;;;;;7613957;19;19960;-74
2023/08/26 11:01:21;;;;;;;;;;;24.90;99.90;;;;;;7614041;19;20783;-74
2023/08/26 11:03:53;;;;;;;;;;;24.80;99.90;;;;;;7618994;19;19914;-75
2023/08/26 11:06:26;;;;;;;;;;;24.80;99.90;;;;;;7610745;19;19960;-74
2023/08/26 11:08:58;;;;;;;;;;;24.90;99.90;;;;;;7611807;19;20258;-74
2023/08/26 11:11:31;;;;;;;;;;;24.90;99.90;;;;;;7616368;19;19963;-74
2023/08/26 11:14:03;;;;;;;;;;;24.90;99.90;;;;;;7612358;19;21039;-73
2023/08/26 11:16:35;;;;;;;;;;;24.90;99.90;;;;;;7614001;19;20443;-74
2023/08/26 11:19:08;;;;;;;;;;;24.90;99.90;;;;;;7614080;19;19978;-73
2023/08/26 11:21:41;;;;;;;;;;;25.10;99.90;;;;;;7613775;19;19942;-73
2023/08/26 11:24:13;;;;;;;;;;;25.50;99.90;;;;;;7614162;19;19948;-74
2023/08/26 11:26:46;;;;;;;;;;;25.80;99.90;;;;;;7608372;19;20029;-74
2023/08/26 11:29:19;;;;;;;;;;;26.30;99.90;;;;;;7609673;19;19937;-75
2023/08/26 11:31:51;;;;;;;;;;;26.70;99.90;;;;;;7614226;19;19990;-75
2023/08/26 11:34:23;;;;;;;;;;;26.70;99.90;;;;;;7610708;19;19914;-74
2023/08/26 11:36:56;;;;;;;;;;;26.90;99.90;;;;;;7609245;19;19931;-74
2023/08/26 11:39:34;;;;;;;;;;;26.80;99.90;;;;;;7612764;19;19959;-75
2023/08/26 11:42:13;;;;;;;;;;;26.70;99.90;;;;;;7613263;19;19938;-75
2023/08/26 11:44:46;;;;;;;;;;;26.60;99.90;;;;;;7614041;19;20550;-74
2023/08/26 11:47:18;;;;;;;;;;;26.40;99.90;;;;;;7610873;19;19925;-74
2023/08/26 11:49:57;;;;;;;;;;;26.50;99.90;;;;;;7609610;19;19958;-74
2023/08/26 11:52:34;;;;;;;;;;;26.60;99.90;;;;;;7614299;19;20277;-73
2023/08/26 11:55:07;;;;;;;;;;;27.00;99.90;;;;;;7613208;19;19962;-75
2023/08/26 11:57:40;;;;;;;;;;;27.30;99.90;;;;;;7610147;19;19933;-75
2023/08/26 12:00:13;;;;;;;;;;;27.60;99.90;;;;;;7611058;19;19934;-74
2023/08/26 12:02:49;;;;;;;;;;;27.60;99.90;;;;;;7614884;19;19927;-74
2023/08/26 12:05:21;;;;;;;;;;;27.70;99.90;;;;;;7607878;19;21240;-74
2023/08/26 12:07:55;;;;;;;;;;;27.70;99.90;;;;;;7608774;19;19937;-75
2023/08/26 12:10:28;;;;;;;;;;;27.90;99.90;;;;;;7611249;19;19933;-75
2023/08/26 12:13:02;;;;;;;;;;;28.10;99.90;;;;;;7610295;19;20317;-74
2023/08/26 12:15:38;;;;;;;;;;;28.40;99.90;;;;;;7613673;19;19919;-75
2023/08/26 12:18:10;;;;;;;;;;;28.20;99.90;;;;;;7611373;19;20450;-76
2023/08/26 12:20:46;;;;;;;;;;;28.00;99.90;;;;;;7610999;19;19937;-74
2023/08/26 12:23:19;;;;;;;;;;;28.10;99.90;;;;;;7610168;19;20345;-74
2023/08/26 12:25:51;;;;;;;;;;;28.00;99.90;;;;;;7611328;19;19926;-74
2023/08/26 12:28:28;;;;;;;;;;;28.30;99.90;;;;;;7611999;19;19942;-75
2023/08/26 12:31:00;;;;;;;;;;;28.50;99.90;;;;;;7615177;19;20429;-74
2023/08/26 12:33:32;;;;;;;;;;;28.70;99.90;;;;;;7614107;19;20602;-75
2023/08/26 12:36:13;;;;;;;;;;;28.50;99.90;;;;;;7615288;19;19964;-74
2023/08/26 12:38:46;;;;;;;;;;;28.30;99.90;;;;;;7611898;19;19930;-74
2023/08/26 12:41:18;;;;;;;;;;;28.20;99.90;;;;;;7611791;19;19956;-73
2023/08/26 12:43:51;;;;;;;;;;;28.20;99.90;;;;;;7612999;19;19931;-74
2023/08/26 12:46:24;;;;;;;;;;;28.40;99.90;;;;;;7609734;19;19926;-74
2023/08/26 12:48:56;;;;;;;;;;;28.30;99.90;;;;;;7614369;19;20811;-75
2023/08/26 12:51:28;;;;;;;;;;;27.80;99.90;;;;;;7611029;19;19924;-74
2023/08/26 12:54:00;;;;;;;;;;;27.60;99.90;;;;;;7613563;19;19954;-75
2023/08/26 12:56:33;;;;;;;;;;;27.90;99.90;;;;;;7613693;19;19977;-74
2023/08/26 12:59:05;;;;;;;;;;;28.10;99.90;;;;;;7611931;19;21849;-75
2023/08/26 13:01:37;;;;;;;;;;;28.10;99.90;;;;;;7615581;19;19937;-75
2023/08/26 13:04:09;;;;;;;;;;;28.10;99.90;;;;;;7609414;19;19948;-75
2023/08/26 13:06:41;;;;;;;;;;;27.80;99.90;;;;;;7611854;19;19960;-75
2023/08/26 13:09:13;;;;;;;;;;;27.90;99.90;;;;;;7611913;19;19927;-74
2023/08/26 13:11:45;;;;;;;;;;;28.10;99.90;;;;;;7614459;19;19958;-76
2023/08/26 13:14:17;;;;;;;;;;;28.50;99.90;;;;;;7611416;19;19938;-75
2023/08/26 13:16:50;;;;;;;;;;;29.10;99.90;;;;;;7611243;19;20001;-75
2023/08/26 13:19:23;;;;;;;;;;;29.60;99.90;;;;;;7613041;19;19922;-77
2023/08/26 13:21:55;;;;;;;;;;;29.50;99.70;;;;;;7611097;19;20723;-74
2023/08/26 13:24:27;;;;;;;;;;;29.70;99.90;;;;;;7612699;19;19914;-75
2023/08/26 13:26:59;;;;;;;;;;;29.90;99.40;;;;;;7606338;19;19943;-74
2023/08/26 13:29:31;;;;;;;;;;;29.80;99.10;;;;;;7614106;19;19934;-74
2023/08/26 13:32:03;;;;;;;;;;;29.60;99.50;;;;;;7613404;19;19930;-74
2023/08/26 13:34:35;;;;;;;;;;;29.00;99.90;;;;;;7616014;19;20290;-75
2023/08/26 13:37:08;;;;;;;;;;;28.60;99.90;;;;;;7609582;19;19922;-74
2023/08/26 13:39:40;;;;;;;;;;;28.40;99.90;;;;;;7622776;19;19914;-76
2023/08/26 13:42:12;;;;;;;;;;;28.70;99.90;;;;;;7617119;19;19919;-76
2023/08/26 13:44:44;;;;;;;;;;;29.00;99.90;;;;;;7622540;19;19925;-75
2023/08/26 13:47:16;;;;;;;;;;;29.30;99.90;;;;;;7612583;19;19922;-76
2023/08/26 13:49:48;;;;;;;;;;;29.60;99.20;;;;;;7620595;19;19989;-75
2023/08/26 13:52:20;;;;;;;;;;;29.20;99.30;;;;;;7620028;19;20420;-75
2023/08/26 13:54:52;;;;;;;;;;;28.60;99.90;;;;;;7624765;19;19929;-76
2023/08/26 13:57:24;;;;;;;;;;;28.00;99.90;;;;;;7615997;19;19927;-74
2023/08/26 13:59:57;;;;;;;;;;;27.60;99.90;;;;;;7621770;19;19946;-74
2023/08/26 14:02:29;;;;;;;;;;;27.20;99.90;;;;;;7617483;19;19919;-75
2023/08/26 14:05:01;;;;;;;;;;;26.80;99.90;;;;;;7618619;19;20291;-74
2023/08/26 14:07:33;;;;;;;;;;;26.60;99.90;;;;;;7617784;19;19926;-74
2023/08/26 14:10:06;;;;;;;;;;;26.30;99.90;;;;;;7616206;19;19986;-75
2023/08/26 14:12:42;;;;;;;;;;;26.10;99.90;;;;;;7622189;19;19926;-76
2023/08/26 14:15:14;;;;;;;;;;;26.00;99.90;;;;;;7620130;19;19930;-75
2023/08/26 14:17:46;;;;;;;;;;;25.90;99.90;;;;;;7623985;19;19919;-75
2023/08/26 14:20:19;;;;;;;;;;;25.70;99.90;;;;;;7617546;19;21826;-74
2023/08/26 14:22:51;;;;;;;;;;;25.40;99.90;;;;;;7624305;19;20879;-76
2023/08/26 14:25:24;;;;;;;;;;;25.40;99.90;;;;;;7620511;19;19926;-75
2023/08/26 14:27:57;;;;;;;;;;;25.30;99.90;;;;;;7616467;19;19933;-74
2023/08/26 14:30:31;;;;;;;;;;;25.10;99.90;;;;;;7614671;19;19914;-75
2023/08/26 14:33:03;;;;;;;;;;;25.00;99.90;;;;;;7623882;19;19953;-74
2023/08/26 14:35:36;;;;;;;;;;;24.90;99.90;;;;;;7624019;19;20394;-74
2023/08/26 14:38:08;;;;;;;;;;;24.80;99.90;;;;;;7624226;19;20024;-74
2023/08/26 14:40:44;;;;;;;;;;;24.80;99.90;;;;;;7625952;19;19947;-75
2023/08/26 14:43:17;;;;;;;;;;;24.50;99.90;;;;;;7628590;19;19954;-75
2023/08/26 14:45:49;;;;;;;;;;;23.70;99.90;;;;;;7631781;19;20261;-75
2023/08/26 14:48:22;;;;;;;;;;;22.40;99.90;;;;;;7621830;19;19922;-75